Terminal Aerodrome Forecast
Issued by NWS Riverton, WY

Home | Current Version | Previous Version | Text Only | Print | Product List | Glossary On
Versions: 1 2 3 4 5 6 7 8 9 10 11 12 13 14 15
974
FTUS45 KRIW 252325
TAFRIW
TAF
KRIW 252325Z 2600/2624 27009KT P6SM BKN250
     FM260100 32014G23KT P6SM SCT090 BKN250
     FM260400 02014G25KT P6SM VCSH SCT030 BKN070
     FM260900 33010KT P6SM VCSH FEW030 BKN070
     FM261200 05007KT P6SM FEW040 SCT070=

USA.gov is the U.S. government's official web portal to all federal, state and local government web resources and services.